sensor_id;sensor_type;location;lat;lon;timestamp;temperature;humidity
4376;DHT22;2202;50.866;12.750;2023-08-08T00:00:53;11.10;93.90
4376;DHT22;2202;50.866;12.750;2023-08-08T00:03:20;11.10;93.70
4376;DHT22;2202;50.866;12.750;2023-08-08T00:05:47;11.10;93.70
4376;DHT22;2202;50.866;12.750;2023-08-08T00:08:13;11.10;93.60
4376;DHT22;2202;50.866;12.750;2023-08-08T00:10:41;11.00;93.70
4376;DHT22;2202;50.866;12.750;2023-08-08T00:13:08;11.00;93.60
4376;DHT22;2202;50.866;12.750;2023-08-08T00:15:35;11.00;93.50
4376;DHT22;2202;50.866;12.750;2023-08-08T00:18:03;11.00;93.50
4376;DHT22;2202;50.866;12.750;2023-08-08T00:20:30;11.10;93.50
4376;DHT22;2202;50.866;12.750;2023-08-08T00:22:56;11.10;93.30
4376;DHT22;2202;50.866;12.750;2023-08-08T00:25:23;11.10;93.30
4376;DHT22;2202;50.866;12.750;2023-08-08T00:27:51;11.10;93.30
4376;DHT22;2202;50.866;12.750;2023-08-08T00:30:18;11.10;93.20
4376;DHT22;2202;50.866;12.750;2023-08-08T00:32:45;11.10;93.10
4376;DHT22;2202;50.866;12.750;2023-08-08T00:35:12;11.00;93.20
4376;DHT22;2202;50.866;12.750;2023-08-08T00:37:39;11.00;93.30
4376;DHT22;2202;50.866;12.750;2023-08-08T00:40:06;11.00;93.30
4376;DHT22;2202;50.866;12.750;2023-08-08T00:42:33;10.90;93.80
4376;DHT22;2202;50.866;12.750;2023-08-08T00:45:02;10.80;93.80
4376;DHT22;2202;50.866;12.750;2023-08-08T00:47:30;10.80;93.90
4376;DHT22;2202;50.866;12.750;2023-08-08T00:49:57;10.70;94.00
4376;DHT22;2202;50.866;12.750;2023-08-08T00:52:24;10.70;94.00
4376;DHT22;2202;50.866;12.750;2023-08-08T00:54:52;10.70;94.10
4376;DHT22;2202;50.866;12.750;2023-08-08T00:57:18;10.70;93.90
4376;DHT22;2202;50.866;12.750;2023-08-08T00:59:45;10.70;93.90
4376;DHT22;2202;50.866;12.750;2023-08-08T01:02:14;10.70;94.00
4376;DHT22;2202;50.866;12.750;2023-08-08T01:04:41;10.70;94.00
4376;DHT22;2202;50.866;12.750;2023-08-08T01:07:12;10.70;93.80
4376;DHT22;2202;50.866;12.750;2023-08-08T01:09:47;10.70;93.80
4376;DHT22;2202;50.866;12.750;2023-08-08T01:12:15;10.70;93.70
4376;DHT22;2202;50.866;12.750;2023-08-08T01:14:43;10.70;93.60
4376;DHT22;2202;50.866;12.750;2023-08-08T01:17:11;10.70;93.50
4376;DHT22;2202;50.866;12.750;2023-08-08T01:19:39;10.70;93.60
4376;DHT22;2202;50.866;12.750;2023-08-08T01:22:10;10.70;93.50
4376;DHT22;2202;50.866;12.750;2023-08-08T01:24:42;10.60;93.60
4376;DHT22;2202;50.866;12.750;2023-08-08T01:27:10;10.60;93.60
4376;DHT22;2202;50.866;12.750;2023-08-08T01:29:37;10.60;93.50
4376;DHT22;2202;50.866;12.750;2023-08-08T01:32:05;10.60;93.50
4376;DHT22;2202;50.866;12.750;2023-08-08T01:34:32;10.60;93.50
4376;DHT22;2202;50.866;12.750;2023-08-08T01:37:04;10.60;93.60
4376;DHT22;2202;50.866;12.750;2023-08-08T01:39:32;10.50;93.60
4376;DHT22;2202;50.866;12.750;2023-08-08T01:42:02;10.50;93.60
4376;DHT22;2202;50.866;12.750;2023-08-08T01:44:29;10.50;93.50
4376;DHT22;2202;50.866;12.750;2023-08-08T01:46:58;10.50;93.40
4376;DHT22;2202;50.866;12.750;2023-08-08T01:49:25;10.40;93.50
4376;DHT22;2202;50.866;12.750;2023-08-08T01:51:52;10.40;93.50
4376;DHT22;2202;50.866;12.750;2023-08-08T01:54:19;10.40;93.60
4376;DHT22;2202;50.866;12.750;2023-08-08T01:56:46;10.40;93.40
4376;DHT22;2202;50.866;12.750;2023-08-08T01:59:14;10.50;93.30
4376;DHT22;2202;50.866;12.750;2023-08-08T02:01:41;10.40;93.30
4376;DHT22;2202;50.866;12.750;2023-08-08T02:04:07;10.30;93.50
4376;DHT22;2202;50.866;12.750;2023-08-08T02:06:34;10.30;93.50
4376;DHT22;2202;50.866;12.750;2023-08-08T02:09:02;10.30;93.50
4376;DHT22;2202;50.866;12.750;2023-08-08T02:11:29;10.30;93.60
4376;DHT22;2202;50.866;12.750;2023-08-08T02:13:55;10.30;93.60
4376;DHT22;2202;50.866;12.750;2023-08-08T02:16:24;10.30;93.50
4376;DHT22;2202;50.866;12.750;2023-08-08T02:18:50;10.30;93.60
4376;DHT22;2202;50.866;12.750;2023-08-08T02:21:17;10.30;93.60
4376;DHT22;2202;50.866;12.750;2023-08-08T02:23:44;10.20;93.60
4376;DHT22;2202;50.866;12.750;2023-08-08T02:26:11;10.20;93.60
4376;DHT22;2202;50.866;12.750;2023-08-08T02:28:38;10.20;93.90
4376;DHT22;2202;50.866;12.750;2023-08-08T02:31:04;10.20;93.80
4376;DHT22;2202;50.866;12.750;2023-08-08T02:33:33;10.20;93.70
4376;DHT22;2202;50.866;12.750;2023-08-08T02:35:59;10.20;93.90
4376;DHT22;2202;50.866;12.750;2023-08-08T02:38:26;10.20;93.90
4376;DHT22;2202;50.866;12.750;2023-08-08T02:40:53;10.10;93.70
4376;DHT22;2202;50.866;12.750;2023-08-08T02:43:20;10.00;94.00
4376;DHT22;2202;50.866;12.750;2023-08-08T02:45:47;9.80;94.50
4376;DHT22;2202;50.866;12.750;2023-08-08T02:48:13;9.80;95.00
4376;DHT22;2202;50.866;12.750;2023-08-08T02:50:42;9.70;95.20
4376;DHT22;2202;50.866;12.750;2023-08-08T02:53:08;9.60;95.40
4376;DHT22;2202;50.866;12.750;2023-08-08T02:55:36;9.60;95.70
4376;DHT22;2202;50.866;12.750;2023-08-08T02:58:03;9.60;95.60
4376;DHT22;2202;50.866;12.750;2023-08-08T03:00:31;9.60;95.80
4376;DHT22;2202;50.866;12.750;2023-08-08T03:02:57;9.50;95.90
4376;DHT22;2202;50.866;12.750;2023-08-08T03:05:24;9.50;96.10
4376;DHT22;2202;50.866;12.750;2023-08-08T03:07:53;9.50;96.10
4376;DHT22;2202;50.866;12.750;2023-08-08T03:10:19;9.50;96.20
4376;DHT22;2202;50.866;12.750;2023-08-08T03:12:46;9.50;96.20
4376;DHT22;2202;50.866;12.750;2023-08-08T03:15:13;9.40;96.30
4376;DHT22;2202;50.866;12.750;2023-08-08T03:17:40;9.40;96.50
4376;DHT22;2202;50.866;12.750;2023-08-08T03:20:08;9.40;96.70
4376;DHT22;2202;50.866;12.750;2023-08-08T03:22:36;9.40;96.70
4376;DHT22;2202;50.866;12.750;2023-08-08T03:25:05;9.40;96.60
4376;DHT22;2202;50.866;12.750;2023-08-08T03:27:32;9.40;96.50
4376;DHT22;2202;50.866;12.750;2023-08-08T03:29:59;9.40;96.50
4376;DHT22;2202;50.866;12.750;2023-08-08T03:32:26;9.50;96.60
4376;DHT22;2202;50.866;12.750;2023-08-08T03:34:53;9.40;96.60
4376;DHT22;2202;50.866;12.750;2023-08-08T03:37:20;9.40;96.80
4376;DHT22;2202;50.866;12.750;2023-08-08T03:39:47;9.50;96.80
4376;DHT22;2202;50.866;12.750;2023-08-08T03:42:15;9.50;96.90
4376;DHT22;2202;50.866;12.750;2023-08-08T03:44:42;9.50;96.80
4376;DHT22;2202;50.866;12.750;2023-08-08T03:47:10;9.60;96.70
4376;DHT22;2202;50.866;12.750;2023-08-08T03:49:37;9.60;96.80
4376;DHT22;2202;50.866;12.750;2023-08-08T03:52:04;9.70;96.70
4376;DHT22;2202;50.866;12.750;2023-08-08T03:54:31;9.70;96.60
4376;DHT22;2202;50.866;12.750;2023-08-08T03:56:58;9.80;96.50
4376;DHT22;2202;50.866;12.750;2023-08-08T03:59:27;9.80;96.30
4376;DHT22;2202;50.866;12.750;2023-08-08T04:01:54;9.90;96.10
4376;DHT22;2202;50.866;12.750;2023-08-08T04:04:21;10.00;95.90
4376;DHT22;2202;50.866;12.750;2023-08-08T04:06:48;10.10;95.80
4376;DHT22;2202;50.866;12.750;2023-08-08T04:09:14;10.10;95.70
4376;DHT22;2202;50.866;12.750;2023-08-08T04:11:41;10.10;95.90
4376;DHT22;2202;50.866;12.750;2023-08-08T04:14:08;10.10;96.00
4376;DHT22;2202;50.866;12.750;2023-08-08T04:16:38;10.10;96.00
4376;DHT22;2202;50.866;12.750;2023-08-08T04:19:05;10.10;96.10
4376;DHT22;2202;50.866;12.750;2023-08-08T04:21:32;10.10;96.20
4376;DHT22;2202;50.866;12.750;2023-08-08T04:23:59;10.00;96.50
4376;DHT22;2202;50.866;12.750;2023-08-08T04:26:26;10.00;96.50
4376;DHT22;2202;50.866;12.750;2023-08-08T04:28:53;10.10;96.50
4376;DHT22;2202;50.866;12.750;2023-08-08T04:31:21;10.10;96.50
4376;DHT22;2202;50.866;12.750;2023-08-08T04:33:51;10.10;96.50
4376;DHT22;2202;50.866;12.750;2023-08-08T04:36:21;10.20;96.30
4376;DHT22;2202;50.866;12.750;2023-08-08T04:38:48;10.20;96.30
4376;DHT22;2202;50.866;12.750;2023-08-08T04:41:14;10.30;96.40
4376;DHT22;2202;50.866;12.750;2023-08-08T04:43:41;10.40;96.10
4376;DHT22;2202;50.866;12.750;2023-08-08T04:46:08;10.60;95.90
4376;DHT22;2202;50.866;12.750;2023-08-08T04:48:36;10.70;95.50
4376;DHT22;2202;50.866;12.750;2023-08-08T04:51:05;10.80;95.60
4376;DHT22;2202;50.866;12.750;2023-08-08T04:53:32;11.00;94.90
4376;DHT22;2202;50.866;12.750;2023-08-08T04:55:59;11.00;94.40
4376;DHT22;2202;50.866;12.750;2023-08-08T04:58:26;11.10;94.10
4376;DHT22;2202;50.866;12.750;2023-08-08T05:00:53;11.20;94.00
4376;DHT22;2202;50.866;12.750;2023-08-08T05:03:20;11.10;93.90
4376;DHT22;2202;50.866;12.750;2023-08-08T05:05:47;11.10;94.00
4376;DHT22;2202;50.866;12.750;2023-08-08T05:08:16;11.20;93.90
4376;DHT22;2202;50.866;12.750;2023-08-08T05:10:43;11.20;93.90
4376;DHT22;2202;50.866;12.750;2023-08-08T05:13:10;11.20;93.70
4376;DHT22;2202;50.866;12.750;2023-08-08T05:15:37;11.20;93.60
4376;DHT22;2202;50.866;12.750;2023-08-08T05:18:04;11.30;93.60
4376;DHT22;2202;50.866;12.750;2023-08-08T05:20:31;11.30;93.20
4376;DHT22;2202;50.866;12.750;2023-08-08T05:22:58;11.40;93.20
4376;DHT22;2202;50.866;12.750;2023-08-08T05:25:26;11.30;93.20
4376;DHT22;2202;50.866;12.750;2023-08-08T05:27:53;11.30;92.90
4376;DHT22;2202;50.866;12.750;2023-08-08T05:30:20;11.40;92.70
4376;DHT22;2202;50.866;12.750;2023-08-08T05:32:46;11.50;92.70
4376;DHT22;2202;50.866;12.750;2023-08-08T05:35:13;11.50;92.40
4376;DHT22;2202;50.866;12.750;2023-08-08T05:37:40;11.50;92.30
4376;DHT22;2202;50.866;12.750;2023-08-08T05:40:08;11.60;92.00
4376;DHT22;2202;50.866;12.750;2023-08-08T05:42:37;11.60;91.60
4376;DHT22;2202;50.866;12.750;2023-08-08T05:45:05;11.70;91.50
4376;DHT22;2202;50.866;12.750;2023-08-08T05:47:32;11.70;91.40
4376;DHT22;2202;50.866;12.750;2023-08-08T05:49:59;11.60;91.60
4376;DHT22;2202;50.866;12.750;2023-08-08T05:52:26;11.70;91.70
4376;DHT22;2202;50.866;12.750;2023-08-08T05:54:55;11.70;91.40
4376;DHT22;2202;50.866;12.750;2023-08-08T05:57:24;11.70;91.70
4376;DHT22;2202;50.866;12.750;2023-08-08T05:59:52;11.80;91.60
4376;DHT22;2202;50.866;12.750;2023-08-08T06:02:19;11.80;91.20
4376;DHT22;2202;50.866;12.750;2023-08-08T06:04:46;11.90;91.10
4376;DHT22;2202;50.866;12.750;2023-08-08T06:07:13;12.00;91.10
4376;DHT22;2202;50.866;12.750;2023-08-08T06:09:39;12.10;90.80
4376;DHT22;2202;50.866;12.750;2023-08-08T06:12:07;12.10;91.10
4376;DHT22;2202;50.866;12.750;2023-08-08T06:14:34;12.10;91.10
4376;DHT22;2202;50.866;12.750;2023-08-08T06:17:02;12.10;91.00
4376;DHT22;2202;50.866;12.750;2023-08-08T06:19:29;12.20;90.70
4376;DHT22;2202;50.866;12.750;2023-08-08T06:21:56;12.20;90.40
4376;DHT22;2202;50.866;12.750;2023-08-08T06:24:23;12.30;90.50
4376;DHT22;2202;50.866;12.750;2023-08-08T06:26:50;12.30;90.60
4376;DHT22;2202;50.866;12.750;2023-08-08T06:29:18;12.20;91.10
4376;DHT22;2202;50.866;12.750;2023-08-08T06:31:44;12.30;91.60
4376;DHT22;2202;50.866;12.750;2023-08-08T06:34:16;12.20;92.20
4376;DHT22;2202;50.866;12.750;2023-08-08T06:36:45;12.20;92.70
4376;DHT22;2202;50.866;12.750;2023-08-08T06:39:13;12.10;93.20
4376;DHT22;2202;50.866;12.750;2023-08-08T06:41:40;11.90;93.60
4376;DHT22;2202;50.866;12.750;2023-08-08T06:44:07;11.80;94.40
4376;DHT22;2202;50.866;12.750;2023-08-08T06:46:34;11.70;94.80
4376;DHT22;2202;50.866;12.750;2023-08-08T06:49:01;11.70;94.80
4376;DHT22;2202;50.866;12.750;2023-08-08T06:51:29;11.70;94.80
4376;DHT22;2202;50.866;12.750;2023-08-08T06:53:56;11.70;95.10
4376;DHT22;2202;50.866;12.750;2023-08-08T06:56:23;11.70;95.30
4376;DHT22;2202;50.866;12.750;2023-08-08T06:58:51;11.80;95.80
4376;DHT22;2202;50.866;12.750;2023-08-08T07:01:18;11.80;95.30
4376;DHT22;2202;50.866;12.750;2023-08-08T07:03:45;11.80;95.10
4376;DHT22;2202;50.866;12.750;2023-08-08T07:06:12;11.80;95.30
4376;DHT22;2202;50.866;12.750;2023-08-08T07:08:40;11.80;95.20
4376;DHT22;2202;50.866;12.750;2023-08-08T07:11:07;11.90;95.00
4376;DHT22;2202;50.866;12.750;2023-08-08T07:13:34;11.90;94.70
4376;DHT22;2202;50.866;12.750;2023-08-08T07:16:01;11.90;94.70
4376;DHT22;2202;50.866;12.750;2023-08-08T07:18:28;12.00;94.40
4376;DHT22;2202;50.866;12.750;2023-08-08T07:20:54;12.00;94.40
4376;DHT22;2202;50.866;12.750;2023-08-08T07:23:22;12.00;94.40
4376;DHT22;2202;50.866;12.750;2023-08-08T07:25:50;12.00;94.90
4376;DHT22;2202;50.866;12.750;2023-08-08T07:28:17;11.90;95.30
4376;DHT22;2202;50.866;12.750;2023-08-08T07:30:44;12.00;94.80
4376;DHT22;2202;50.866;12.750;2023-08-08T07:33:11;12.00;94.30
4376;DHT22;2202;50.866;12.750;2023-08-08T07:35:39;12.10;94.20
4376;DHT22;2202;50.866;12.750;2023-08-08T07:38:06;12.10;94.70
4376;DHT22;2202;50.866;12.750;2023-08-08T07:40:32;12.20;94.40
4376;DHT22;2202;50.866;12.750;2023-08-08T07:43:01;12.30;94.00
4376;DHT22;2202;50.866;12.750;2023-08-08T07:45:27;12.20;93.70
4376;DHT22;2202;50.866;12.750;2023-08-08T07:47:54;12.30;94.00
4376;DHT22;2202;50.866;12.750;2023-08-08T07:50:21;12.40;93.80
4376;DHT22;2202;50.866;12.750;2023-08-08T07:52:48;12.60;93.10
4376;DHT22;2202;50.866;12.750;2023-08-08T07:55:15;12.80;93.30
4376;DHT22;2202;50.866;12.750;2023-08-08T07:57:42;13.00;92.40
4376;DHT22;2202;50.866;12.750;2023-08-08T08:00:11;13.20;92.50
4376;DHT22;2202;50.866;12.750;2023-08-08T08:02:38;13.30;91.40
4376;DHT22;2202;50.866;12.750;2023-08-08T08:05:06;13.50;91.00
4376;DHT22;2202;50.866;12.750;2023-08-08T08:07:33;13.80;90.50
4376;DHT22;2202;50.866;12.750;2023-08-08T08:10:00;13.90;88.20
4376;DHT22;2202;50.866;12.750;2023-08-08T08:12:27;13.90;88.80
4376;DHT22;2202;50.866;12.750;2023-08-08T08:14:54;14.10;89.20
4376;DHT22;2202;50.866;12.750;2023-08-08T08:17:22;14.10;87.60
4376;DHT22;2202;50.866;12.750;2023-08-08T08:19:50;14.10;87.60
4376;DHT22;2202;50.866;12.750;2023-08-08T08:22:17;14.00;86.60
4376;DHT22;2202;50.866;12.750;2023-08-08T08:24:44;14.00;88.20
4376;DHT22;2202;50.866;12.750;2023-08-08T08:27:11;14.00;87.40
4376;DHT22;2202;50.866;12.750;2023-08-08T08:29:38;14.10;87.60
4376;DHT22;2202;50.866;12.750;2023-08-08T08:32:05;14.10;88.40
4376;DHT22;2202;50.866;12.750;2023-08-08T08:34:34;14.30;88.20
4376;DHT22;2202;50.866;12.750;2023-08-08T08:37:01;14.60;86.20
4376;DHT22;2202;50.866;12.750;2023-08-08T08:39:28;14.70;84.40
4376;DHT22;2202;50.866;12.750;2023-08-08T08:41:59;14.80;82.80
4376;DHT22;2202;50.866;12.750;2023-08-08T08:44:27;14.80;81.40
4376;DHT22;2202;50.866;12.750;2023-08-08T08:46:57;14.80;82.80
4376;DHT22;2202;50.866;12.750;2023-08-08T08:49:26;14.90;82.80
4376;DHT22;2202;50.866;12.750;2023-08-08T08:51:57;15.00;81.60
4376;DHT22;2202;50.866;12.750;2023-08-08T08:54:26;15.00;77.40
4376;DHT22;2202;50.866;12.750;2023-08-08T08:56:53;15.10;79.60
4376;DHT22;2202;50.866;12.750;2023-08-08T08:59:21;15.10;80.80
4376;DHT22;2202;50.866;12.750;2023-08-08T09:01:48;15.20;78.00
4376;DHT22;2202;50.866;12.750;2023-08-08T09:04:16;15.20;78.20
4376;DHT22;2202;50.866;12.750;2023-08-08T09:06:45;15.20;78.20
4376;DHT22;2202;50.866;12.750;2023-08-08T09:09:14;15.20;78.80
4376;DHT22;2202;50.866;12.750;2023-08-08T09:11:42;15.20;79.20
4376;DHT22;2202;50.866;12.750;2023-08-08T09:14:16;15.20;78.00
4376;DHT22;2202;50.866;12.750;2023-08-08T09:16:43;15.20;77.40
4376;DHT22;2202;50.866;12.750;2023-08-08T09:19:10;15.30;77.00
4376;DHT22;2202;50.866;12.750;2023-08-08T09:21:37;15.40;77.80
4376;DHT22;2202;50.866;12.750;2023-08-08T09:24:04;15.50;74.20
4376;DHT22;2202;50.866;12.750;2023-08-08T09:26:33;15.40;75.20
4376;DHT22;2202;50.866;12.750;2023-08-08T09:29:01;15.40;76.20
4376;DHT22;2202;50.866;12.750;2023-08-08T09:31:28;15.40;75.60
4376;DHT22;2202;50.866;12.750;2023-08-08T09:33:57;15.50;76.60
4376;DHT22;2202;50.866;12.750;2023-08-08T09:36:24;15.50;74.00
4376;DHT22;2202;50.866;12.750;2023-08-08T09:38:52;15.40;75.40
4376;DHT22;2202;50.866;12.750;2023-08-08T09:41:19;15.40;76.60
4376;DHT22;2202;50.866;12.750;2023-08-08T09:43:49;15.40;77.20
4376;DHT22;2202;50.866;12.750;2023-08-08T09:46:18;15.40;75.00
4376;DHT22;2202;50.866;12.750;2023-08-08T09:48:45;15.30;73.20
4376;DHT22;2202;50.866;12.750;2023-08-08T09:51:13;15.40;72.60
4376;DHT22;2202;50.866;12.750;2023-08-08T09:53:41;15.40;73.40
4376;DHT22;2202;50.866;12.750;2023-08-08T09:56:09;15.50;72.60
4376;DHT22;2202;50.866;12.750;2023-08-08T09:58:37;15.70;74.20
4376;DHT22;2202;50.866;12.750;2023-08-08T10:01:05;16.10;72.20
4376;DHT22;2202;50.866;12.750;2023-08-08T10:03:32;16.50;71.60
4376;DHT22;2202;50.866;12.750;2023-08-08T10:06:01;16.60;67.20
4376;DHT22;2202;50.866;12.750;2023-08-08T10:08:29;16.60;70.40
4376;DHT22;2202;50.866;12.750;2023-08-08T10:10:56;16.60;70.20
4376;DHT22;2202;50.866;12.750;2023-08-08T10:13:26;16.80;71.80
4376;DHT22;2202;50.866;12.750;2023-08-08T10:15:54;17.20;70.80
4376;DHT22;2202;50.866;12.750;2023-08-08T10:18:23;17.00;66.00
4376;DHT22;2202;50.866;12.750;2023-08-08T10:20:51;16.60;66.20
4376;DHT22;2202;50.866;12.750;2023-08-08T10:23:19;16.50;70.40
4376;DHT22;2202;50.866;12.750;2023-08-08T10:25:48;16.40;68.00
4376;DHT22;2202;50.866;12.750;2023-08-08T10:28:17;16.30;67.60
4376;DHT22;2202;50.866;12.750;2023-08-08T10:30:46;16.20;69.80
4376;DHT22;2202;50.866;12.750;2023-08-08T10:33:17;16.20;69.20
4376;DHT22;2202;50.866;12.750;2023-08-08T10:36:07;16.20;70.60
4376;DHT22;2202;50.866;12.750;2023-08-08T10:38:42;16.30;67.80
4376;DHT22;2202;50.866;12.750;2023-08-08T10:41:10;16.20;68.80
4376;DHT22;2202;50.866;12.750;2023-08-08T10:43:47;16.40;69.80
4376;DHT22;2202;50.866;12.750;2023-08-08T10:46:23;16.60;68.80
4376;DHT22;2202;50.866;12.750;2023-08-08T10:48:50;16.60;66.40
4376;DHT22;2202;50.866;12.750;2023-08-08T10:51:19;16.60;65.80
4376;DHT22;2202;50.866;12.750;2023-08-08T10:53:50;16.60;65.00
4376;DHT22;2202;50.866;12.750;2023-08-08T10:56:18;16.70;64.40
4376;DHT22;2202;50.866;12.750;2023-08-08T10:58:48;16.80;61.80
4376;DHT22;2202;50.866;12.750;2023-08-08T11:01:15;17.10;63.40
4376;DHT22;2202;50.866;12.750;2023-08-08T11:03:43;17.50;63.00
4376;DHT22;2202;50.866;12.750;2023-08-08T11:06:10;17.80;60.10
4376;DHT22;2202;50.866;12.750;2023-08-08T11:08:38;18.00;59.90
4376;DHT22;2202;50.866;12.750;2023-08-08T11:11:06;18.00;58.50
4376;DHT22;2202;50.866;12.750;2023-08-08T11:13:33;18.10;57.30
4376;DHT22;2202;50.866;12.750;2023-08-08T11:16:00;18.10;57.80
4376;DHT22;2202;50.866;12.750;2023-08-08T11:18:28;17.90;58.90
4376;DHT22;2202;50.866;12.750;2023-08-08T11:20:55;18.10;60.10
4376;DHT22;2202;50.866;12.750;2023-08-08T11:23:22;18.30;52.30
4376;DHT22;2202;50.866;12.750;2023-08-08T11:25:50;18.50;54.80
4376;DHT22;2202;50.866;12.750;2023-08-08T11:28:17;18.70;51.60
4376;DHT22;2202;50.866;12.750;2023-08-08T11:30:45;18.50;52.10
4376;DHT22;2202;50.866;12.750;2023-08-08T11:33:13;18.30;53.90
4376;DHT22;2202;50.866;12.750;2023-08-08T11:35:44;18.40;54.40
4376;DHT22;2202;50.866;12.750;2023-08-08T11:38:14;18.50;51.20
4376;DHT22;2202;50.866;12.750;2023-08-08T11:40:42;18.20;50.70
4376;DHT22;2202;50.866;12.750;2023-08-08T11:43:11;17.80;53.50
4376;DHT22;2202;50.866;12.750;2023-08-08T11:45:39;17.80;55.90
4376;DHT22;2202;50.866;12.750;2023-08-08T11:48:08;17.80;57.10
4376;DHT22;2202;50.866;12.750;2023-08-08T11:50:37;17.80;56.60
4376;DHT22;2202;50.866;12.750;2023-08-08T11:53:04;18.00;59.60
4376;DHT22;2202;50.866;12.750;2023-08-08T11:55:32;18.40;56.70
4376;DHT22;2202;50.866;12.750;2023-08-08T11:57:58;18.10;57.60
4376;DHT22;2202;50.866;12.750;2023-08-08T12:00:28;17.90;58.70
4376;DHT22;2202;50.866;12.750;2023-08-08T12:02:57;17.90;58.90
4376;DHT22;2202;50.866;12.750;2023-08-08T12:05:24;17.90;59.60
4376;DHT22;2202;50.866;12.750;2023-08-08T12:07:51;18.00;57.80
4376;DHT22;2202;50.866;12.750;2023-08-08T12:10:20;18.40;57.10
4376;DHT22;2202;50.866;12.750;2023-08-08T12:12:53;18.80;55.00
4376;DHT22;2202;50.866;12.750;2023-08-08T12:15:20;18.80;52.10
4376;DHT22;2202;50.866;12.750;2023-08-08T12:17:49;18.90;53.70
4376;DHT22;2202;50.866;12.750;2023-08-08T12:20:16;19.00;55.10
4376;DHT22;2202;50.866;12.750;2023-08-08T12:22:43;19.10;54.80
4376;DHT22;2202;50.866;12.750;2023-08-08T12:25:10;19.00;57.30
4376;DHT22;2202;50.866;12.750;2023-08-08T12:27:38;19.40;57.60
4376;DHT22;2202;50.866;12.750;2023-08-08T12:30:06;19.30;51.60
4376;DHT22;2202;50.866;12.750;2023-08-08T12:32:33;18.80;52.80
4376;DHT22;2202;50.866;12.750;2023-08-08T12:35:01;18.80;53.50
4376;DHT22;2202;50.866;12.750;2023-08-08T12:37:28;18.70;53.50
4376;DHT22;2202;50.866;12.750;2023-08-08T12:39:55;18.70;55.10
4376;DHT22;2202;50.866;12.750;2023-08-08T12:42:22;18.50;53.50
4376;DHT22;2202;50.866;12.750;2023-08-08T12:44:49;18.40;54.40
4376;DHT22;2202;50.866;12.750;2023-08-08T12:47:16;18.30;54.80
4376;DHT22;2202;50.866;12.750;2023-08-08T12:49:43;18.20;56.40
4376;DHT22;2202;50.866;12.750;2023-08-08T12:52:11;18.20;55.90
4376;DHT22;2202;50.866;12.750;2023-08-08T12:54:38;18.20;57.80
4376;DHT22;2202;50.866;12.750;2023-08-08T12:57:05;18.70;55.30
4376;DHT22;2202;50.866;12.750;2023-08-08T12:59:32;19.00;54.30
4376;DHT22;2202;50.866;12.750;2023-08-08T13:01:59;18.80;53.20
4376;DHT22;2202;50.866;12.750;2023-08-08T13:04:26;18.70;54.60
4376;DHT22;2202;50.866;12.750;2023-08-08T13:06:53;18.90;55.00
4376;DHT22;2202;50.866;12.750;2023-08-08T13:09:21;18.80;51.20
4376;DHT22;2202;50.866;12.750;2023-08-08T13:11:48;18.70;48.00
4376;DHT22;2202;50.866;12.750;2023-08-08T13:14:15;18.70;48.00
4376;DHT22;2202;50.866;12.750;2023-08-08T13:16:41;18.60;47.50
4376;DHT22;2202;50.866;12.750;2023-08-08T13:19:08;18.50;47.30
4376;DHT22;2202;50.866;12.750;2023-08-08T13:21:35;18.30;48.80
4376;DHT22;2202;50.866;12.750;2023-08-08T13:24:02;18.30;50.30
4376;DHT22;2202;50.866;12.750;2023-08-08T13:26:31;18.30;48.80
4376;DHT22;2202;50.866;12.750;2023-08-08T13:28:57;18.30;47.50
4376;DHT22;2202;50.866;12.750;2023-08-08T13:31:24;18.30;48.80
4376;DHT22;2202;50.866;12.750;2023-08-08T13:33:51;18.50;49.30
4376;DHT22;2202;50.866;12.750;2023-08-08T13:36:18;18.80;48.20
4376;DHT22;2202;50.866;12.750;2023-08-08T13:38:45;19.20;49.30
4376;DHT22;2202;50.866;12.750;2023-08-08T13:41:11;19.40;48.40
4376;DHT22;2202;50.866;12.750;2023-08-08T13:43:40;19.60;45.90
4376;DHT22;2202;50.866;12.750;2023-08-08T13:46:07;19.60;45.60
4376;DHT22;2202;50.866;12.750;2023-08-08T13:48:35;19.40;47.30
4376;DHT22;2202;50.866;12.750;2023-08-08T13:51:02;19.40;46.80
4376;DHT22;2202;50.866;12.750;2023-08-08T13:53:29;19.20;48.00
4376;DHT22;2202;50.866;12.750;2023-08-08T13:55:56;19.20;50.00
4376;DHT22;2202;50.866;12.750;2023-08-08T13:58:23;18.90;50.30
4376;DHT22;2202;50.866;12.750;2023-08-08T14:00:51;18.60;48.80
4376;DHT22;2202;50.866;12.750;2023-08-08T14:03:18;18.30;50.90
4376;DHT22;2202;50.866;12.750;2023-08-08T14:05:45;18.10;50.50
4376;DHT22;2202;50.866;12.750;2023-08-08T14:08:12;18.10;51.20
4376;DHT22;2202;50.866;12.750;2023-08-08T14:10:39;18.10;51.60
4376;DHT22;2202;50.866;12.750;2023-08-08T14:13:06;18.40;51.60
4376;DHT22;2202;50.866;12.750;2023-08-08T14:15:32;18.70;51.60
4376;DHT22;2202;50.866;12.750;2023-08-08T14:18:01;18.90;48.80
4376;DHT22;2202;50.866;12.750;2023-08-08T14:20:28;18.70;49.60
4376;DHT22;2202;50.866;12.750;2023-08-08T14:22:54;18.70;49.10
4376;DHT22;2202;50.866;12.750;2023-08-08T14:25:22;18.60;50.20
4376;DHT22;2202;50.866;12.750;2023-08-08T14:27:49;18.50;49.60
4376;DHT22;2202;50.866;12.750;2023-08-08T14:30:16;18.30;50.70
4376;DHT22;2202;50.866;12.750;2023-08-08T14:32:43;18.10;50.30
4376;DHT22;2202;50.866;12.750;2023-08-08T14:35:11;18.00;51.40
4376;DHT22;2202;50.866;12.750;2023-08-08T14:37:39;18.00;50.90
4376;DHT22;2202;50.866;12.750;2023-08-08T14:40:07;18.00;51.80
4376;DHT22;2202;50.866;12.750;2023-08-08T14:42:34;18.00;51.60
4376;DHT22;2202;50.866;12.750;2023-08-08T14:47:29;17.80;52.80
4376;DHT22;2202;50.866;12.750;2023-08-08T14:49:56;17.70;53.20
4376;DHT22;2202;50.866;12.750;2023-08-08T14:52:24;17.60;53.90
4376;DHT22;2202;50.866;12.750;2023-08-08T14:54:51;17.60;54.10
4376;DHT22;2202;50.866;12.750;2023-08-08T14:57:18;17.50;54.30
4376;DHT22;2202;50.866;12.750;2023-08-08T14:59:45;17.40;54.10
4376;DHT22;2202;50.866;12.750;2023-08-08T15:02:12;17.40;54.80
4376;DHT22;2202;50.866;12.750;2023-08-08T15:04:39;17.40;56.20
4376;DHT22;2202;50.866;12.750;2023-08-08T15:07:06;17.40;56.40
4376;DHT22;2202;50.866;12.750;2023-08-08T15:09:34;17.30;56.40
4376;DHT22;2202;50.866;12.750;2023-08-08T15:12:03;17.20;57.80
4376;DHT22;2202;50.866;12.750;2023-08-08T15:14:30;17.00;58.30
4376;DHT22;2202;50.866;12.750;2023-08-08T15:16:56;17.00;58.30
4376;DHT22;2202;50.866;12.750;2023-08-08T15:19:23;16.90;59.80
4376;DHT22;2202;50.866;12.750;2023-08-08T15:21:50;16.80;59.80
4376;DHT22;2202;50.866;12.750;2023-08-08T15:24:17;16.70;59.40
4376;DHT22;2202;50.866;12.750;2023-08-08T15:26:45;16.70;59.60
4376;DHT22;2202;50.866;12.750;2023-08-08T15:29:12;16.70;59.80
4376;DHT22;2202;50.866;12.750;2023-08-08T15:31:38;16.80;60.40
4376;DHT22;2202;50.866;12.750;2023-08-08T15:34:06;16.70;63.00
4376;DHT22;2202;50.866;12.750;2023-08-08T15:36:33;16.40;65.60
4376;DHT22;2202;50.866;12.750;2023-08-08T15:39:00;16.00;72.80
4376;DHT22;2202;50.866;12.750;2023-08-08T15:41:26;15.50;76.20
4376;DHT22;2202;50.866;12.750;2023-08-08T15:43:54;15.10;81.00
4376;DHT22;2202;50.866;12.750;2023-08-08T15:46:21;14.60;85.00
4376;DHT22;2202;50.866;12.750;2023-08-08T15:48:48;14.40;87.40
4376;DHT22;2202;50.866;12.750;2023-08-08T15:51:15;14.20;88.60